Time;durP1;ratioP1;P1;durP2;ratioP2;P2;SDS_P1;SDS_P2;PMS_P1;PMS_P2;Temp;Humidity;BMP_temperature;BMP_pressure;BME280_temperature;BME280_humidity;BME280_pressure;Samples;Min_cycle;Max_cycle;Signal;HPM_P1;HPM_P2
2022/03/11 00:00:05;;;;;;;;;14.50;14.00;;;;;-146.03;100.00;60875.16;5005508;28;45441;-81
2022/03/11 00:02:30;;;;;;;;;23.75;19.75;;;;;-146.03;100.00;60875.16;5010041;28;45469;-82
2022/03/11 00:04:57;;;;;;;;;17.75;17.00;;;;;-146.03;100.00;60875.16;5011154;28;45612;-82
2022/03/11 00:07:23;;;;;;;;;20.25;18.00;;;;;-146.03;100.00;60875.16;5010872;28;45469;-82
2022/03/11 00:09:50;;;;;;;;;21.75;20.75;;;;;-146.03;100.00;60875.16;5010970;28;45410;-82
2022/03/11 00:12:15;;;;;;;;;25.00;21.75;;;;;-146.03;100.00;60875.16;5010743;28;45504;-81
2022/03/11 00:14:40;;;;;;;;;24.25;21.00;;;;;-146.03;100.00;60875.16;5013250;28;45513;-81
2022/03/11 00:17:06;;;;;;;;;19.50;17.50;;;;;-146.03;100.00;60875.16;5009453;28;47336;-82
2022/03/11 00:19:31;;;;;;;;;20.75;19.50;;;;;-146.03;100.00;60875.16;4994770;28;45558;-82
2022/03/11 00:21:57;;;;;;;;;19.00;18.50;;;;;-146.03;100.00;60875.16;5008883;28;45391;-82
2022/03/11 00:24:22;;;;;;;;;27.25;22.00;;;;;-146.03;100.00;60875.16;5006884;28;45560;-82
2022/03/11 00:26:48;;;;;;;;;17.75;17.50;;;;;-146.03;100.00;60875.16;5012794;28;45456;-80
2022/03/11 00:29:13;;;;;;;;;19.00;18.25;;;;;-146.03;100.00;60875.16;5011097;28;45453;-82
2022/03/11 00:31:39;;;;;;;;;18.50;17.25;;;;;-146.03;100.00;60875.16;5010322;28;45480;-83
2022/03/11 00:34:04;;;;;;;;;19.00;16.50;;;;;-146.03;100.00;60875.16;4992262;28;45537;-82
2022/03/11 00:36:29;;;;;;;;;19.50;16.75;;;;;-146.03;100.00;60875.16;5008162;28;46534;-82
2022/03/11 00:38:55;;;;;;;;;20.25;19.00;;;;;-146.03;100.00;60875.16;5013098;28;46105;-84
2022/03/11 00:41:20;;;;;;;;;19.50;19.50;;;;;-146.03;100.00;60875.16;5011564;28;45457;-82
2022/03/11 00:43:45;;;;;;;;;15.50;15.50;;;;;-146.03;100.00;60875.16;5007822;28;45657;-82
2022/03/11 00:46:11;;;;;;;;;25.25;24.25;;;;;-146.03;100.00;60875.16;4993957;28;48170;-81
2022/03/11 00:48:36;;;;;;;;;19.50;19.50;;;;;-146.03;100.00;60875.16;5009901;28;45598;-83
2022/03/11 00:51:02;;;;;;;;;20.50;19.50;;;;;-146.03;100.00;60875.16;5009290;28;45494;-81
2022/03/11 00:53:30;;;;;;;;;17.00;16.00;;;;;-146.03;100.00;60875.16;5008992;28;47946;-81
2022/03/11 00:55:55;;;;;;;;;20.50;19.25;;;;;-146.03;100.00;60875.16;5013501;28;46626;-81
2022/03/11 00:58:21;;;;;;;;;18.00;17.00;;;;;-146.03;100.00;60875.16;5011446;28;45635;-82
2022/03/11 01:00:46;;;;;;;;;18.75;18.00;;;;;-146.03;100.00;60875.16;5010065;28;45438;-81
2022/03/11 01:03:13;;;;;;;;;19.50;19.50;;;;;-146.03;100.00;60875.16;5011741;28;45475;-82
2022/03/11 01:05:38;;;;;;;;;20.75;18.25;;;;;-146.03;100.00;60875.16;5012164;28;47329;-82
2022/03/11 01:08:04;;;;;;;;;20.50;17.25;;;;;-146.03;100.00;60875.16;5012873;28;45824;-82
2022/03/11 01:10:29;;;;;;;;;21.50;17.00;;;;;-146.03;100.00;60875.16;5014522;28;45319;-82
2022/03/11 01:12:55;;;;;;;;;22.00;21.75;;;;;-146.03;100.00;60875.16;5012031;28;45328;-82
2022/03/11 01:15:20;;;;;;;;;19.25;18.25;;;;;-146.03;100.00;60875.16;5011776;28;46136;-82
2022/03/11 01:17:46;;;;;;;;;18.25;18.25;;;;;-146.03;100.00;60875.16;5010864;28;45552;-82
2022/03/11 01:20:11;;;;;;;;;18.75;18.00;;;;;-146.03;100.00;60875.16;5012627;28;45480;-81
2022/03/11 01:22:37;;;;;;;;;19.00;17.50;;;;;-146.03;100.00;60875.16;5012441;28;46124;-81
2022/03/11 01:25:04;;;;;;;;;20.25;17.75;;;;;-146.03;100.00;60875.16;4993165;28;48289;-82
2022/03/11 01:27:29;;;;;;;;;16.25;16.00;;;;;-146.03;100.00;60875.16;5008142;28;45726;-82
2022/03/11 01:29:55;;;;;;;;;20.25;19.00;;;;;-146.03;100.00;60875.16;5008558;28;45480;-82
2022/03/11 01:32:20;;;;;;;;;19.50;19.50;;;;;-146.03;100.00;60875.16;5009989;28;45426;-81
2022/03/11 01:34:46;;;;;;;;;20.75;18.00;;;;;-146.03;100.00;60875.16;5009982;28;46206;-81
2022/03/11 01:37:11;;;;;;;;;17.25;17.00;;;;;-146.03;100.00;60875.16;4988406;28;45581;-81
2022/03/11 01:39:36;;;;;;;;;16.50;13.75;;;;;-146.03;100.00;60875.16;5007212;28;46026;-81
2022/03/11 01:42:02;;;;;;;;;18.00;17.25;;;;;-146.03;100.00;60875.16;5013032;28;45614;-81
2022/03/11 01:44:27;;;;;;;;;20.00;16.25;;;;;-146.03;100.00;60875.16;5012605;28;46224;-81
2022/03/11 01:46:53;;;;;;;;;22.25;17.50;;;;;-146.03;100.00;60875.16;5008096;28;45449;-81
2022/03/11 01:49:19;;;;;;;;;21.00;18.25;;;;;-146.03;100.00;60875.16;5008567;28;45741;-81
2022/03/11 01:51:44;;;;;;;;;20.50;20.25;;;;;-146.03;100.00;60875.16;5005574;28;45244;-81
2022/03/11 01:54:10;;;;;;;;;18.50;17.25;;;;;-146.03;100.00;60875.16;5006063;28;46313;-81
2022/03/11 01:56:37;;;;;;;;;23.75;18.25;;;;;-146.03;100.00;60875.16;5007089;28;45575;-81
2022/03/11 01:59:04;;;;;;;;;19.75;16.00;;;;;-146.03;100.00;60875.16;5003617;28;45561;-81
2022/03/11 02:01:30;;;;;;;;;20.25;18.75;;;;;-146.03;100.00;60875.16;5005478;28;45512;-81
2022/03/11 02:03:57;;;;;;;;;21.00;19.75;;;;;-146.03;100.00;60875.16;5006269;28;45487;-81
2022/03/11 02:06:23;;;;;;;;;19.00;17.00;;;;;-146.03;100.00;60875.16;5007369;28;45432;-81
2022/03/11 02:08:50;;;;;;;;;21.00;19.75;;;;;-146.03;100.00;60875.16;5004991;28;45455;-81
2022/03/11 02:11:16;;;;;;;;;23.00;22.00;;;;;-146.03;100.00;60875.16;5003397;28;45487;-81
2022/03/11 02:13:46;;;;;;;;;20.50;19.25;;;;;-146.03;100.00;60875.16;5003786;28;46048;-81
2022/03/11 02:16:13;;;;;;;;;22.00;19.00;;;;;-146.03;100.00;60875.16;5008532;28;45508;-81
2022/03/11 02:18:38;;;;;;;;;20.25;20.00;;;;;-146.03;100.00;60875.16;4983563;28;45366;-81
2022/03/11 02:21:04;;;;;;;;;20.00;18.50;;;;;-146.03;100.00;60875.16;5008686;28;45507;-81
2022/03/11 02:23:36;;;;;;;;;19.00;18.00;;;;;-146.03;100.00;60875.16;5009031;28;48191;-81
2022/03/11 02:26:02;;;;;;;;;21.00;18.75;;;;;-146.03;100.00;60875.16;5009401;28;45686;-82
2022/03/11 02:28:33;;;;;;;;;16.75;16.75;;;;;-146.03;100.00;60875.16;5007629;28;45479;-82
2022/03/11 02:30:58;;;;;;;;;19.25;17.75;;;;;-146.03;100.00;60875.16;5003692;28;45548;-82
2022/03/11 02:33:23;;;;;;;;;20.00;19.25;;;;;-146.03;100.00;60875.16;5007610;28;45513;-81
2022/03/11 02:35:49;;;;;;;;;21.00;21.00;;;;;-146.03;100.00;60875.16;5009981;28;45319;-81
2022/03/11 02:38:14;;;;;;;;;21.25;20.50;;;;;-146.03;100.00;60875.16;5013374;28;45442;-81
2022/03/11 02:40:40;;;;;;;;;17.00;17.00;;;;;-146.03;100.00;60875.16;5012113;28;45541;-82
2022/03/11 02:43:05;;;;;;;;;19.75;19.75;;;;;-146.03;100.00;60875.16;5009992;28;46085;-80
2022/03/11 02:45:31;;;;;;;;;20.50;20.25;;;;;-146.03;100.00;60875.16;5002268;28;45853;-82
2022/03/11 02:47:56;;;;;;;;;17.00;17.00;;;;;-146.03;100.00;60875.16;4999117;28;47842;-81
2022/03/11 02:50:22;;;;;;;;;19.25;15.25;;;;;-146.03;100.00;60875.16;5002318;28;46049;-83
2022/03/11 02:52:47;;;;;;;;;21.25;21.00;;;;;-146.03;100.00;60875.16;5010969;28;46179;-82
2022/03/11 02:55:13;;;;;;;;;22.75;19.25;;;;;-146.03;100.00;60875.16;5011403;28;45513;-82
2022/03/11 02:57:38;;;;;;;;;20.50;18.00;;;;;-146.03;100.00;60875.16;5008347;28;45813;-83
2022/03/11 03:00:04;;;;;;;;;15.25;15.25;;;;;-146.03;100.00;60875.16;5013258;28;45614;-82
2022/03/11 03:02:29;;;;;;;;;20.00;18.00;;;;;-146.03;100.00;60875.16;4988468;28;47042;-81
2022/03/11 03:04:55;;;;;;;;;18.50;18.00;;;;;-146.03;100.00;60875.16;5007078;28;45399;-81
2022/03/11 03:07:20;;;;;;;;;17.25;15.25;;;;;-146.03;100.00;60875.16;5006421;28;45699;-81
2022/03/11 03:09:45;;;;;;;;;18.25;18.25;;;;;-146.03;100.00;60875.16;5006237;28;45308;-81
2022/03/11 03:12:11;;;;;;;;;19.50;18.25;;;;;-146.03;100.00;60875.16;5013393;28;46515;-81
2022/03/11 03:14:37;;;;;;;;;17.75;17.00;;;;;-146.03;100.00;60875.16;5006207;28;45485;-81
2022/03/11 03:17:04;;;;;;;;;23.75;19.25;;;;;-146.03;100.00;60875.16;5010794;28;45662;-81
2022/03/11 03:19:30;;;;;;;;;17.25;16.00;;;;;-146.03;100.00;60875.16;5012963;28;45402;-81
2022/03/11 03:21:55;;;;;;;;;16.50;16.50;;;;;-146.03;100.00;60875.16;5010025;28;46496;-82
2022/03/11 03:24:20;;;;;;;;;20.00;18.00;;;;;-146.03;100.00;60875.16;5007853;28;45477;-82
2022/03/11 03:26:46;;;;;;;;;19.00;17.00;;;;;-146.03;100.00;60875.16;5008365;28;45470;-82
2022/03/11 03:29:11;;;;;;;;;16.00;16.00;;;;;-146.03;100.00;60875.16;5009133;28;45505;-80
2022/03/11 03:31:36;;;;;;;;;16.25;16.00;;;;;-146.03;100.00;60875.16;5009662;28;45569;-81
2022/03/11 03:34:02;;;;;;;;;15.25;14.50;;;;;-146.03;100.00;60875.16;5007464;28;45362;-81
2022/03/11 03:36:27;;;;;;;;;22.00;18.75;;;;;-146.03;100.00;60875.16;4995842;28;47810;-81
2022/03/11 03:38:53;;;;;;;;;18.50;16.00;;;;;-146.03;100.00;60875.16;5011906;28;45503;-81
2022/03/11 03:41:18;;;;;;;;;18.25;18.25;;;;;-146.03;100.00;60875.16;5014384;28;46579;-81
2022/03/11 03:43:43;;;;;;;;;18.50;16.75;;;;;-146.03;100.00;60875.16;5006715;28;46067;-81
2022/03/11 03:46:09;;;;;;;;;17.75;16.75;;;;;-146.03;100.00;60875.16;5010012;28;45475;-81
2022/03/11 03:48:34;;;;;;;;;21.25;19.00;;;;;-146.03;100.00;60875.16;5012201;28;45827;-81
2022/03/11 03:51:00;;;;;;;;;14.75;14.75;;;;;-146.03;100.00;60875.16;5006470;28;46049;-82
2022/03/11 03:53:25;;;;;;;;;19.25;18.25;;;;;-146.03;100.00;60875.16;5006143;28;45749;-82
2022/03/11 03:55:50;;;;;;;;;19.50;16.00;;;;;-146.03;100.00;60875.16;5012798;28;45436;-82
2022/03/11 03:58:16;;;;;;;;;15.25;14.50;;;;;-146.03;100.00;60875.16;5010414;28;46163;-83
2022/03/11 04:00:41;;;;;;;;;16.25;16.00;;;;;-146.03;100.00;60875.16;5008318;28;46113;-80
2022/03/11 04:03:06;;;;;;;;;15.75;14.75;;;;;-146.03;100.00;60875.16;5015228;28;45382;-81
2022/03/11 04:05:32;;;;;;;;;17.00;17.00;;;;;-146.03;100.00;60875.16;5015386;28;45614;-81
2022/03/11 04:07:57;;;;;;;;;20.00;19.00;;;;;-146.03;100.00;60875.16;5014950;28;45434;-81
2022/03/11 04:10:23;;;;;;;;;18.75;16.00;;;;;-146.03;100.00;60875.16;5015050;28;46402;-81
2022/03/11 04:12:49;;;;;;;;;20.50;18.75;;;;;-146.03;100.00;60875.16;5015656;28;45828;-81
2022/03/11 04:15:15;;;;;;;;;17.25;14.00;;;;;-146.03;100.00;60875.16;5016720;28;45422;-82
2022/03/11 04:17:41;;;;;;;;;14.50;11.75;;;;;-146.03;100.00;60875.16;5016110;28;45501;-81
2022/03/11 04:20:07;;;;;;;;;16.75;16.75;;;;;-146.03;100.00;60875.16;5015961;28;46433;-81
2022/03/11 04:22:33;;;;;;;;;14.50;13.00;;;;;-146.03;100.00;60875.16;5016211;28;45462;-81
2022/03/11 04:24:58;;;;;;;;;17.25;15.50;;;;;-146.03;100.00;60875.16;5015137;28;45537;-81
2022/03/11 04:27:23;;;;;;;;;14.00;14.00;;;;;-146.03;100.00;60875.16;5016939;28;45496;-81
2022/03/11 04:29:48;;;;;;;;;14.75;14.50;;;;;-146.03;100.00;60875.16;5015882;28;46170;-81
2022/03/11 04:32:14;;;;;;;;;15.00;15.00;;;;;-146.03;100.00;60875.16;5016001;28;45235;-81
2022/03/11 04:34:39;;;;;;;;;13.50;12.50;;;;;-146.03;100.00;60875.16;5016536;28;45525;-81
2022/03/11 04:37:05;;;;;;;;;15.75;14.75;;;;;-146.03;100.00;60875.16;5015613;28;45560;-81
2022/03/11 04:39:30;;;;;;;;;14.75;14.25;;;;;-146.03;100.00;60875.16;4998361;28;47279;-81
2022/03/11 04:41:56;;;;;;;;;14.75;14.75;;;;;-146.03;100.00;60875.16;5014432;28;45592;-81
2022/03/11 04:44:22;;;;;;;;;17.25;14.75;;;;;-146.03;100.00;60875.16;5015394;28;45485;-81
2022/03/11 04:46:48;;;;;;;;;19.75;16.25;;;;;-146.03;100.00;60875.16;4999182;28;45352;-81
2022/03/11 04:49:14;;;;;;;;;15.25;13.00;;;;;-146.03;100.00;60875.16;5016003;28;45450;-81
2022/03/11 04:51:39;;;;;;;;;15.50;14.25;;;;;-146.03;100.00;60875.16;5015868;28;45472;-81
2022/03/11 04:54:06;;;;;;;;;14.00;13.25;;;;;-146.03;100.00;60875.16;5016236;28;45452;-81
2022/03/11 04:56:32;;;;;;;;;13.25;11.50;;;;;-146.03;100.00;60875.16;5016145;28;45426;-81
2022/03/11 04:58:58;;;;;;;;;13.50;13.50;;;;;-146.03;100.00;60875.16;5016723;28;47235;-82
2022/03/11 05:01:23;;;;;;;;;15.25;14.50;;;;;-146.03;100.00;60875.16;5016093;28;45485;-81
2022/03/11 05:03:49;;;;;;;;;15.25;15.25;;;;;-146.03;100.00;60875.16;5015596;28;45413;-81
2022/03/11 05:06:14;;;;;;;;;14.75;14.75;;;;;-146.03;100.00;60875.16;5015973;28;45403;-81
2022/03/11 05:08:39;;;;;;;;;12.00;12.00;;;;;-146.03;100.00;60875.16;5015907;28;45371;-82
2022/03/11 05:11:05;;;;;;;;;12.00;12.00;;;;;-146.03;100.00;60875.16;5016128;28;45467;-82
2022/03/11 05:13:30;;;;;;;;;13.25;12.25;;;;;-146.03;100.00;60875.16;5016430;28;45462;-82
2022/03/11 05:15:56;;;;;;;;;14.00;14.00;;;;;-146.03;100.00;60875.16;5015768;28;45576;-81
2022/03/11 05:18:21;;;;;;;;;14.50;12.75;;;;;-146.03;100.00;60875.16;5015139;28;45449;-81
2022/03/11 05:20:47;;;;;;;;;11.25;11.00;;;;;-146.03;100.00;60875.16;5015744;28;45355;-81
2022/03/11 05:23:12;;;;;;;;;15.25;13.25;;;;;-146.03;100.00;60875.16;5015901;28;45516;-81
2022/03/11 05:25:38;;;;;;;;;12.25;11.00;;;;;-146.03;100.00;60875.16;5014166;28;45406;-82
2022/03/11 05:28:04;;;;;;;;;15.50;13.50;;;;;-146.03;100.00;60875.16;5015361;28;46311;-81
2022/03/11 05:30:30;;;;;;;;;10.75;10.75;;;;;-146.03;100.00;60875.16;4997548;28;45681;-81
2022/03/11 05:32:55;;;;;;;;;14.75;10.75;;;;;-146.03;100.00;60875.16;5015359;28;47865;-82
2022/03/11 05:35:20;;;;;;;;;12.50;11.75;;;;;-146.03;100.00;60875.16;4997720;28;45480;-81
2022/03/11 05:37:46;;;;;;;;;11.75;11.75;;;;;-146.03;100.00;60875.16;5015190;28;46691;-81
2022/03/11 05:40:12;;;;;;;;;16.25;16.25;;;;;-146.03;100.00;60875.16;5014877;28;45646;-81
2022/03/11 05:42:38;;;;;;;;;11.00;11.00;;;;;-146.03;100.00;60875.16;5015348;28;45340;-81
2022/03/11 05:45:03;;;;;;;;;14.00;12.00;;;;;-146.03;100.00;60875.16;5015127;28;45485;-81
2022/03/11 05:47:30;;;;;;;;;13.00;11.75;;;;;-146.03;100.00;60875.16;5014742;28;45399;-81
2022/03/11 05:49:55;;;;;;;;;11.50;11.00;;;;;-146.03;100.00;60875.16;5015853;28;45514;-81
2022/03/11 05:52:22;;;;;;;;;15.50;14.25;;;;;-146.03;100.00;60875.16;5015160;28;45461;-82
2022/03/11 05:54:47;;;;;;;;;14.75;13.75;;;;;-146.03;100.00;60875.16;5015203;28;45419;-81
2022/03/11 05:57:13;;;;;;;;;18.25;15.00;;;;;-146.03;100.00;60875.16;5015086;28;46299;-81
2022/03/11 05:59:38;;;;;;;;;13.00;12.75;;;;;-146.03;100.00;60875.16;4993856;28;45449;-81
2022/03/11 06:02:03;;;;;;;;;10.75;10.75;;;;;-146.03;100.00;60875.16;5014828;28;45803;-81
2022/03/11 06:04:29;;;;;;;;;15.00;13.00;;;;;-146.03;100.00;60875.16;5015514;28;45487;-81
2022/03/11 06:06:54;;;;;;;;;11.00;11.00;;;;;-146.03;100.00;60875.16;5014629;28;47323;-81
2022/03/11 06:09:20;;;;;;;;;14.75;11.50;;;;;-146.03;100.00;60875.16;4995027;28;45437;-80
2022/03/11 06:11:45;;;;;;;;;14.25;12.00;;;;;-146.03;100.00;60875.16;5014985;28;45578;-81
2022/03/11 06:14:10;;;;;;;;;14.75;11.25;;;;;-146.03;100.00;60875.16;5014573;28;45413;-81
2022/03/11 06:16:36;;;;;;;;;9.50;9.00;;;;;-146.03;100.00;60875.16;5014995;28;45429;-81
2022/03/11 06:19:01;;;;;;;;;11.00;10.75;;;;;-146.03;100.00;60875.16;5014547;28;45460;-81
2022/03/11 06:21:26;;;;;;;;;12.25;10.00;;;;;-146.03;100.00;60875.16;5014962;28;45382;-81
2022/03/11 06:23:52;;;;;;;;;13.00;12.25;;;;;-146.03;100.00;60875.16;4997096;28;45513;-81
2022/03/11 06:26:17;;;;;;;;;10.00;10.00;;;;;-146.03;100.00;60875.16;5014575;28;45434;-81
2022/03/11 06:28:43;;;;;;;;;11.00;9.50;;;;;-146.03;100.00;60875.16;5015109;28;45536;-81
2022/03/11 06:31:09;;;;;;;;;12.50;11.50;;;;;-146.03;100.00;60875.16;5014399;28;45346;-81
2022/03/11 06:33:34;;;;;;;;;8.75;8.75;;;;;-146.03;100.00;60875.16;4995364;28;45320;-81
2022/03/11 06:35:59;;;;;;;;;12.00;11.50;;;;;-146.03;100.00;60875.16;5013463;28;45401;-81
2022/03/11 06:38:25;;;;;;;;;12.50;11.75;;;;;-146.03;100.00;60875.16;5015890;28;45462;-81
2022/03/11 06:40:50;;;;;;;;;14.50;9.00;;;;;-146.03;100.00;60875.16;5014262;28;45288;-81
2022/03/11 06:43:19;;;;;;;;;10.25;10.00;;;;;-146.03;100.00;60875.16;5012556;28;45548;-82
2022/03/11 06:45:44;;;;;;;;;10.25;10.25;;;;;-146.03;100.00;60875.16;5008351;28;45554;-81
2022/03/11 06:48:10;;;;;;;;;5.75;5.50;;;;;-146.03;100.00;60875.16;5014257;28;45337;-81
2022/03/11 06:50:35;;;;;;;;;9.00;9.00;;;;;-146.03;100.00;60875.16;5017835;28;45485;-81
2022/03/11 06:53:00;;;;;;;;;9.75;9.25;;;;;-146.03;100.00;60875.16;5018082;28;45791;-81
2022/03/11 06:55:26;;;;;;;;;7.00;6.25;;;;;-146.03;100.00;60875.16;5016435;28;47786;-81
2022/03/11 06:57:51;;;;;;;;;8.00;8.00;;;;;-146.03;100.00;60875.16;5016082;28;45431;-81
2022/03/11 07:00:17;;;;;;;;;9.00;8.50;;;;;-146.03;100.00;60875.16;5015248;28;45473;-82
2022/03/11 07:02:42;;;;;;;;;10.00;10.00;;;;;-146.03;100.00;60875.16;5017080;28;45442;-81
2022/03/11 07:05:08;;;;;;;;;9.50;9.00;;;;;-146.03;100.00;60875.16;5017469;28;46705;-81
2022/03/11 07:07:34;;;;;;;;;8.50;7.50;;;;;-146.03;100.00;60875.16;4999191;28;45861;-81
2022/03/11 07:10:00;;;;;;;;;9.75;8.00;;;;;-146.03;100.00;60875.16;5016421;28;45403;-81
2022/03/11 07:12:27;;;;;;;;;6.00;4.25;;;;;-146.03;100.00;60875.16;4998660;28;45264;-81
2022/03/11 07:14:52;;;;;;;;;9.50;8.00;;;;;-146.03;100.00;60875.16;5015725;28;45473;-81
2022/03/11 07:17:18;;;;;;;;;9.75;8.75;;;;;-146.03;100.00;60875.16;5016599;28;45350;-80
2022/03/11 07:19:43;;;;;;;;;8.75;8.75;;;;;-146.03;100.00;60875.16;5016144;28;45593;-82
2022/03/11 07:22:09;;;;;;;;;11.00;8.00;;;;;-146.03;100.00;60875.16;5016182;28;45539;-80
2022/03/11 07:24:34;;;;;;;;;10.25;9.00;;;;;-146.03;100.00;60875.16;5016956;28;45390;-81
2022/03/11 07:26:59;;;;;;;;;8.50;7.00;;;;;-146.03;100.00;60875.16;5016733;28;45493;-83
2022/03/11 07:29:25;;;;;;;;;10.25;9.00;;;;;-146.03;100.00;60875.16;5016423;28;45597;-82
2022/03/11 07:31:50;;;;;;;;;6.25;6.25;;;;;-146.03;100.00;60875.16;5017069;28;45533;-81
2022/03/11 07:34:16;;;;;;;;;7.50;7.50;;;;;-146.03;100.00;60875.16;5015951;28;45386;-80
2022/03/11 07:36:42;;;;;;;;;6.25;6.25;;;;;-146.03;100.00;60875.16;5016415;28;45371;-81
2022/03/11 07:39:08;;;;;;;;;8.00;7.00;;;;;-146.03;100.00;60875.16;5004644;28;45443;-81
2022/03/11 07:41:34;;;;;;;;;10.00;8.00;;;;;-146.03;100.00;60875.16;5015917;28;45476;-79
2022/03/11 07:44:01;;;;;;;;;8.75;7.25;;;;;-146.03;100.00;60875.16;4998157;28;46612;-78
2022/03/11 07:46:27;;;;;;;;;6.50;6.50;;;;;-146.03;100.00;60875.16;5014985;28;45426;-78
2022/03/11 07:48:53;;;;;;;;;5.75;5.75;;;;;-146.03;100.00;60875.16;5015429;28;45505;-77
2022/03/11 07:51:19;;;;;;;;;7.75;6.75;;;;;-146.03;100.00;60875.16;5015484;28;45481;-77
2022/03/11 07:53:45;;;;;;;;;6.00;6.00;;;;;-146.03;100.00;60875.16;4997842;28;47171;-79
2022/03/11 07:56:12;;;;;;;;;6.75;6.75;;;;;-146.03;100.00;60875.16;5016377;28;45480;-78
2022/03/11 07:58:39;;;;;;;;;7.50;7.50;;;;;-146.03;100.00;60875.16;5014764;28;45504;-79
2022/03/11 08:01:07;;;;;;;;;7.75;7.75;;;;;-146.03;100.00;60875.16;4992923;28;45889;-79
2022/03/11 08:03:33;;;;;;;;;10.00;7.25;;;;;-146.03;100.00;60875.16;5009220;28;45415;-79
2022/03/11 08:05:59;;;;;;;;;6.00;6.00;;;;;-146.03;100.00;60875.16;5016013;28;45525;-79
2022/03/11 08:08:24;;;;;;;;;6.75;6.00;;;;;-146.03;100.00;60875.16;5016106;28;45549;-80
2022/03/11 08:10:50;;;;;;;;;7.75;6.00;;;;;-146.03;100.00;60875.16;5015805;28;45472;-80
2022/03/11 08:13:15;;;;;;;;;5.25;5.25;;;;;-146.03;100.00;60875.16;5014122;28;45558;-80
2022/03/11 08:15:40;;;;;;;;;5.00;4.00;;;;;-146.03;100.00;60875.16;5012882;28;45497;-80
2022/03/11 08:18:06;;;;;;;;;6.50;6.50;;;;;-146.03;100.00;60875.16;5014979;28;45436;-80
2022/03/11 08:20:31;;;;;;;;;9.00;7.00;;;;;-146.03;100.00;60875.16;5015136;28;45363;-80
2022/03/11 08:22:57;;;;;;;;;7.25;7.00;;;;;-146.03;100.00;60875.16;5015475;28;45549;-79
2022/03/11 08:25:26;;;;;;;;;5.25;5.25;;;;;-146.03;100.00;60875.16;5014291;28;45557;-81
2022/03/11 08:27:54;;;;;;;;;8.00;6.75;;;;;-146.03;100.00;60875.16;4993036;28;45725;-81
2022/03/11 08:30:19;;;;;;;;;8.50;6.75;;;;;-146.03;100.00;60875.16;5013905;28;45703;-82
2022/03/11 08:32:45;;;;;;;;;7.00;7.00;;;;;-146.03;100.00;60875.16;5014469;28;46468;-82
2022/03/11 08:35:11;;;;;;;;;4.75;4.75;;;;;-146.03;100.00;60875.16;5023442;28;45520;-82
2022/03/11 08:38:07;;;;;;;;;6.75;6.75;;;;;-146.03;100.00;60875.16;5015414;28;45512;-81
2022/03/11 08:40:35;;;;;;;;;5.25;5.00;;;;;-146.03;100.00;60875.16;5014694;28;45481;-81
2022/03/11 08:43:01;;;;;;;;;5.75;5.00;;;;;-146.03;100.00;60875.16;5014992;28;46285;-81
2022/03/11 08:45:26;;;;;;;;;3.25;3.25;;;;;-146.03;100.00;60875.16;5015639;28;45382;-81
2022/03/11 08:47:53;;;;;;;;;5.00;5.00;;;;;-146.03;100.00;60875.16;5008657;28;45401;-81
2022/03/11 08:50:20;;;;;;;;;5.00;5.00;;;;;-146.03;100.00;60875.16;5015143;28;46036;-82
2022/03/11 08:52:45;;;;;;;;;5.50;5.00;;;;;-146.03;100.00;60875.16;5015198;28;46026;-81
2022/03/11 08:55:13;;;;;;;;;5.75;5.75;;;;;-146.03;100.00;60875.16;4995819;28;45572;-81
2022/03/11 08:57:38;;;;;;;;;5.25;4.25;;;;;-146.03;100.00;60875.16;4997505;28;45501;-81
2022/03/11 09:00:06;;;;;;;;;5.75;5.75;;;;;-146.03;100.00;60875.16;4996614;28;45534;-83
2022/03/11 09:02:31;;;;;;;;;5.00;5.00;;;;;-146.03;100.00;60875.16;5014554;28;47771;-81
2022/03/11 09:04:57;;;;;;;;;4.00;4.00;;;;;-146.03;100.00;60875.16;5015821;28;45554;-81
2022/03/11 09:07:29;;;;;;;;;5.00;4.00;;;;;-146.03;100.00;60875.16;4997760;28;45280;-81
2022/03/11 09:09:54;;;;;;;;;4.00;4.00;;;;;-146.03;100.00;60875.16;4994878;28;45501;-81
2022/03/11 09:12:20;;;;;;;;;6.75;5.50;;;;;-146.03;100.00;60875.16;5012728;28;46246;-82
2022/03/11 09:14:45;;;;;;;;;3.00;3.00;;;;;-146.03;100.00;60875.16;4994569;28;45766;-81
2022/03/11 09:17:10;;;;;;;;;3.75;3.75;;;;;-146.03;100.00;60875.16;5015723;28;45361;-81
2022/03/11 09:19:36;;;;;;;;;4.25;4.25;;;;;-146.03;100.00;60875.16;5015471;28;45454;-81
2022/03/11 09:22:01;;;;;;;;;4.75;4.75;;;;;-146.03;100.00;60875.16;5015001;28;46030;-81
2022/03/11 09:24:27;;;;;;;;;6.75;5.25;;;;;-146.03;100.00;60875.16;5015157;28;45363;-81
2022/03/11 09:26:52;;;;;;;;;4.00;4.00;;;;;-146.03;100.00;60875.16;5014637;28;45394;-82
2022/03/11 09:29:17;;;;;;;;;5.00;3.75;;;;;-146.03;100.00;60875.16;5014886;28;45458;-81
2022/03/11 09:31:43;;;;;;;;;3.75;3.75;;;;;-146.03;100.00;60875.16;5015116;28;46012;-82
2022/03/11 09:34:08;;;;;;;;;6.50;3.25;;;;;-146.03;100.00;60875.16;5015208;28;49698;-82
2022/03/11 09:36:33;;;;;;;;;4.75;4.75;;;;;-146.03;100.00;60875.16;5014382;28;45552;-82
2022/03/11 09:38:59;;;;;;;;;4.00;4.00;;;;;-146.03;100.00;60875.16;5013703;28;45560;-82
2022/03/11 09:41:29;;;;;;;;;2.25;2.25;;;;;-146.03;100.00;60875.16;5014309;28;46365;-82
2022/03/11 09:43:55;;;;;;;;;5.50;4.75;;;;;-146.03;100.00;60875.16;5014501;28;45471;-81
2022/03/11 09:46:22;;;;;;;;;5.25;4.00;;;;;-146.03;100.00;60875.16;5014080;28;45334;-82
2022/03/11 09:48:47;;;;;;;;;4.25;4.25;;;;;-146.03;100.00;60875.16;5013429;28;45489;-82
2022/03/11 09:51:13;;;;;;;;;4.75;4.75;;;;;-146.03;100.00;60875.16;4996517;28;48410;-82
2022/03/11 09:53:40;;;;;;;;;5.00;5.00;;;;;-146.03;100.00;60875.16;5013078;28;45533;-82
2022/03/11 09:56:06;;;;;;;;;5.00;5.00;;;;;-146.03;100.00;60875.16;5014341;28;45446;-82
2022/03/11 09:58:32;;;;;;;;;6.25;6.00;;;;;-146.03;100.00;60875.16;5004512;28;45536;-82
2022/03/11 10:00:57;;;;;;;;;4.75;3.50;;;;;-146.03;100.00;60875.16;5017936;28;45553;-83
2022/03/11 10:03:22;;;;;;;;;4.00;4.00;;;;;-146.03;100.00;60875.16;5013656;28;45402;-82
2022/03/11 10:05:53;;;;;;;;;4.00;4.00;;;;;-146.03;100.00;60875.16;5014075;28;45390;-81
2022/03/11 10:08:38;;;;;;;;;3.00;3.00;;;;;-146.03;100.00;60875.16;5013696;28;45675;-81
2022/03/11 10:11:24;;;;;;;;;5.50;3.50;;;;;-146.03;100.00;60875.16;5013279;28;45603;-82
2022/03/11 10:13:51;;;;;;;;;4.00;4.00;;;;;-146.03;100.00;60875.16;5013393;28;45555;-82
2022/03/11 10:16:21;;;;;;;;;5.00;4.00;;;;;-146.03;100.00;60875.16;5012415;28;45815;-82
2022/03/11 10:19:06;;;;;;;;;5.75;4.00;;;;;-146.03;100.00;60875.16;5014403;28;45407;-82
2022/03/11 10:21:31;;;;;;;;;5.25;4.00;;;;;-146.03;100.00;60875.16;5012090;28;45579;-82
2022/03/11 10:23:57;;;;;;;;;4.00;3.25;;;;;-146.03;100.00;60875.16;5010739;28;46615;-82
2022/03/11 10:26:50;;;;;;;;;4.00;3.50;;;;;-146.03;100.00;60875.16;5012242;28;45529;-83
2022/03/11 10:29:19;;;;;;;;;6.00;5.00;;;;;-146.03;100.00;60875.16;4992033;28;45583;-82
2022/03/11 10:31:46;;;;;;;;;4.75;3.25;;;;;-146.03;100.00;60875.16;5014048;28;46277;-82
2022/03/11 10:34:29;;;;;;;;;4.25;3.75;;;;;-146.03;100.00;60875.16;5012074;28;45413;-82
2022/03/11 10:36:59;;;;;;;;;7.00;4.50;;;;;-146.03;100.00;60875.16;4993345;28;45810;-82
2022/03/11 10:39:45;;;;;;;;;3.75;3.75;;;;;-146.03;100.00;60875.16;5012283;28;45544;-82
2022/03/11 10:42:29;;;;;;;;;4.00;4.00;;;;;-146.03;100.00;60875.16;4994316;28;48198;-82
2022/03/11 10:45:04;;;;;;;;;4.00;4.00;;;;;-146.03;100.00;60875.16;5010012;28;45450;-83
2022/03/11 10:47:34;;;;;;;;;4.25;4.25;;;;;-146.03;100.00;60875.16;5013416;28;45458;-82
2022/03/11 10:50:03;;;;;;;;;3.75;3.00;;;;;-146.03;100.00;60875.16;4994079;28;45766;-82
2022/03/11 10:52:30;;;;;;;;;3.00;3.00;;;;;-146.03;100.00;60875.16;5012721;28;46093;-81
2022/03/11 10:54:57;;;;;;;;;9.25;6.25;;;;;-146.03;100.00;60875.16;5013004;28;45473;-81